createdAt,value
2022-12-03T00:02:26.895Z,102412.69
2022-12-03T00:04:54.227Z,102459.53
2022-12-03T00:07:21.493Z,102470.88
2022-12-03T00:09:48.611Z,102463.28
2022-12-03T00:12:15.850Z,102406.25
2022-12-03T00:14:52.475Z,102474.53
2022-12-03T00:17:19.571Z,102489.25
2022-12-03T00:19:46.739Z,102479.19
2022-12-03T00:22:13.980Z,102475.88
2022-12-03T00:24:41.116Z,102456.91
2022-12-03T00:27:08.479Z,102487.97
2022-12-03T00:29:35.658Z,102369.28
2022-12-03T00:32:02.881Z,102495.41
2022-12-03T00:34:29.935Z,102355.66
2022-12-03T00:36:57.006Z,102444.59
2022-12-03T00:39:24.312Z,102484.22
2022-12-03T00:41:51.481Z,102473.31
2022-12-03T00:44:18.757Z,102468.47
2022-12-03T00:46:45.962Z,102483.00
2022-12-03T00:49:13.429Z,102482.66
2022-12-03T00:51:40.598Z,102362.16
2022-12-03T00:54:07.721Z,102491.47
2022-12-03T00:56:34.827Z,102456.25
2022-12-03T00:59:02.032Z,102490.59
2022-12-03T01:01:29.242Z,102464.72
2022-12-03T01:03:56.509Z,102495.91
2022-12-03T01:06:23.681Z,102459.91
2022-12-03T01:08:50.881Z,102427.59
2022-12-03T01:11:36.341Z,102480.09
2022-12-03T01:14:05.303Z,102464.78
2022-12-03T01:16:32.660Z,102484.97
2022-12-03T01:18:59.977Z,102468.00
2022-12-03T01:21:27.084Z,102432.41
2022-12-03T01:23:54.387Z,102499.16
2022-12-03T01:26:21.802Z,102498.34
2022-12-03T01:28:48.914Z,102488.66
2022-12-03T01:31:34.511Z,102503.13
2022-12-03T01:34:01.741Z,102456.59
2022-12-03T01:36:28.964Z,102513.16
2022-12-03T01:38:56.031Z,102450.13
2022-12-03T01:41:24.781Z,102503.53
2022-12-03T01:43:54.013Z,102495.06
2022-12-03T01:46:24.503Z,102488.09
2022-12-03T01:48:54.040Z,102433.84
2022-12-03T01:51:21.430Z,102509.88
2022-12-03T01:53:49.249Z,102478.81
2022-12-03T01:56:18.129Z,102500.28
2022-12-03T01:58:47.135Z,102448.16
2022-12-03T02:01:17.991Z,102481.72
2022-12-03T02:03:46.388Z,102495.50
2022-12-03T02:06:19.883Z,102464.81
2022-12-03T02:08:48.008Z,102487.13
2022-12-03T02:11:25.713Z,102490.38
2022-12-03T02:13:57.594Z,102423.69
2022-12-03T02:16:24.823Z,102485.09
2022-12-03T02:18:52.179Z,102435.84
2022-12-03T02:21:54.883Z,102428.16
2022-12-03T02:24:41.437Z,102481.09
2022-12-03T02:27:08.577Z,102431.72
2022-12-03T02:29:36.211Z,102474.44
2022-12-03T02:32:03.614Z,102448.59
2022-12-03T02:34:42.567Z,102328.25
2022-12-03T02:37:14.359Z,102463.19
2022-12-03T02:39:46.686Z,102474.44
2022-12-03T02:42:32.593Z,102412.19
2022-12-03T02:45:05.416Z,102487.34
2022-12-03T02:47:52.734Z,102438.84
2022-12-03T02:50:23.807Z,102388.66
2022-12-03T02:52:53.672Z,102490.50
2022-12-03T02:55:21.551Z,102422.63
2022-12-03T02:57:50.607Z,102503.41
2022-12-03T03:00:18.727Z,102495.28
2022-12-03T03:02:47.313Z,102493.75
2022-12-03T03:05:16.392Z,102463.91
2022-12-03T03:07:43.733Z,102495.41
2022-12-03T03:10:14.154Z,102497.78
2022-12-03T03:12:41.406Z,102494.56
2022-12-03T03:15:11.627Z,102491.72
2022-12-03T03:17:39.358Z,102481.63
2022-12-03T03:20:08.266Z,102504.69
2022-12-03T03:22:40.385Z,102469.63
2022-12-03T03:25:15.469Z,102505.97
2022-12-03T03:27:43.426Z,102475.28
2022-12-03T03:30:11.477Z,102483.28
2022-12-03T03:32:40.235Z,102486.50
2022-12-03T03:35:09.046Z,102495.78
2022-12-03T03:37:36.295Z,102501.03
2022-12-03T03:40:03.881Z,102484.81
2022-12-03T03:42:31.011Z,102502.59
2022-12-03T03:44:58.631Z,102503.44
2022-12-03T03:47:25.977Z,102497.81
2022-12-03T03:49:53.589Z,102429.47
2022-12-03T03:52:21.148Z,102486.72
2022-12-03T03:54:48.618Z,102506.97
2022-12-03T03:57:16.046Z,102513.34
2022-12-03T03:59:43.564Z,102501.72
2022-12-03T04:02:22.726Z,102462.06
2022-12-03T04:04:50.898Z,102500.06
2022-12-03T04:07:18.113Z,102479.81
2022-12-03T04:09:45.155Z,102502.19
2022-12-03T04:12:31.897Z,102494.56
2022-12-03T04:14:59.092Z,102504.22
2022-12-03T04:17:26.506Z,102498.22
2022-12-03T04:19:53.723Z,102409.59
2022-12-03T04:22:39.606Z,102465.84
2022-12-03T04:25:27.263Z,102504.28
2022-12-03T04:28:30.254Z,102504.16
2022-12-03T04:30:57.407Z,102507.38
2022-12-03T04:33:42.945Z,102512.25
2022-12-03T04:36:10.433Z,102506.63
2022-12-03T04:38:37.724Z,102467.75
2022-12-03T04:41:04.980Z,102504.56
2022-12-03T04:43:34.515Z,102495.13
2022-12-03T04:46:03.031Z,102513.81
2022-12-03T04:48:30.181Z,102511.78
2022-12-03T04:50:57.289Z,102521.84
2022-12-03T04:53:24.392Z,102459.97
2022-12-03T04:55:51.454Z,102521.34
2022-12-03T04:58:18.583Z,102498.19
2022-12-03T05:00:45.861Z,102528.16
2022-12-03T05:03:12.920Z,102523.28
2022-12-03T05:05:40.095Z,102521.56
2022-12-03T05:08:07.426Z,102504.00
2022-12-03T05:10:34.669Z,102493.88
2022-12-03T05:13:01.806Z,102531.19
2022-12-03T05:15:28.998Z,102505.78
2022-12-03T05:17:56.060Z,102534.69
2022-12-03T05:20:41.457Z,102534.34
2022-12-03T05:23:13.570Z,102520.59
2022-12-03T05:25:41.411Z,102540.13
2022-12-03T05:28:08.601Z,102536.03
2022-12-03T05:30:36.190Z,102540.81
2022-12-03T05:33:03.342Z,102525.75
2022-12-03T05:35:30.355Z,102511.84
2022-12-03T05:37:57.605Z,102526.78
2022-12-03T05:40:43.502Z,102550.06
2022-12-03T05:43:10.627Z,102534.16
2022-12-03T05:45:40.180Z,102538.84
2022-12-03T05:48:10.884Z,102554.72
2022-12-03T05:50:39.537Z,102502.19
2022-12-03T05:53:17.055Z,102543.13
2022-12-03T05:55:44.126Z,102545.94
2022-12-03T05:58:12.064Z,102553.19
2022-12-03T06:00:42.708Z,102533.41
2022-12-03T06:03:10.836Z,102545.56
2022-12-03T06:05:38.170Z,102555.69
2022-12-03T06:08:05.377Z,102534.00
2022-12-03T06:10:32.705Z,102417.53
2022-12-03T06:12:59.948Z,102559.06
2022-12-03T06:15:27.179Z,102569.56
2022-12-03T06:17:54.359Z,102571.66
2022-12-03T06:20:21.709Z,102554.44
2022-12-03T06:22:49.063Z,102549.50
2022-12-03T06:25:16.717Z,102476.19
2022-12-03T06:27:44.798Z,102565.53
2022-12-03T06:30:13.748Z,102570.97
2022-12-03T06:32:40.783Z,102576.63
2022-12-03T06:35:08.418Z,102573.88
2022-12-03T06:37:35.635Z,102573.03
2022-12-03T06:40:03.040Z,102569.84
2022-12-03T06:42:30.419Z,102575.22
2022-12-03T06:44:57.626Z,102575.72
2022-12-03T06:59:05.770Z,102384.25
2022-12-03T07:11:35.012Z,102483.75
2022-12-03T07:14:21.677Z,102422.09
2022-12-03T07:20:31.424Z,102578.25
2022-12-03T07:22:58.531Z,102604.13
2022-12-03T07:25:25.673Z,102602.44
2022-12-03T07:27:52.859Z,102607.47
2022-12-03T07:30:20.183Z,102609.66
2022-12-03T07:32:47.672Z,102601.28
2022-12-03T07:35:15.952Z,102611.06
2022-12-03T07:37:43.413Z,102593.09
2022-12-03T07:40:11.587Z,102610.94
2022-12-03T07:42:38.673Z,102582.59
2022-12-03T07:45:06.419Z,102601.19
2022-12-03T07:47:33.596Z,102615.78
2022-12-03T07:50:00.636Z,102621.72
2022-12-03T07:52:27.787Z,102634.50
2022-12-03T07:54:55.032Z,102620.84
2022-12-03T07:57:22.358Z,102556.34
2022-12-03T07:59:49.514Z,102598.13
2022-12-03T08:02:21.345Z,102599.13
2022-12-03T08:04:49.035Z,102594.47
2022-12-03T08:07:16.286Z,102596.88
2022-12-03T08:09:43.651Z,102609.81
2022-12-03T08:12:43.104Z,102612.00
2022-12-03T08:15:15.294Z,102605.09
2022-12-03T08:17:44.250Z,102613.84
2022-12-03T08:20:20.040Z,102605.47
2022-12-03T08:22:50.930Z,102607.53
2022-12-03T08:25:23.041Z,102614.31
2022-12-03T08:27:52.678Z,102621.03
2022-12-03T08:30:20.008Z,102609.50
2022-12-03T08:32:48.048Z,102569.84
2022-12-03T08:35:23.242Z,102621.13
2022-12-03T08:38:02.159Z,102594.16
2022-12-03T08:40:34.935Z,102620.31
2022-12-03T08:43:19.349Z,102633.28
2022-12-03T08:45:50.011Z,102623.41
2022-12-03T08:48:33.519Z,102624.69
2022-12-03T08:51:05.246Z,102627.09
2022-12-03T08:53:34.040Z,102623.06
2022-12-03T08:56:04.891Z,102624.16
2022-12-03T08:58:40.802Z,102626.69
2022-12-03T09:01:11.083Z,102638.44
2022-12-03T09:03:44.835Z,102595.88
2022-12-03T09:06:12.298Z,102606.03
2022-12-03T09:08:39.683Z,102601.91
2022-12-03T09:11:06.920Z,102644.34
2022-12-03T09:13:34.176Z,102538.19
2022-12-03T09:16:01.328Z,102595.13
2022-12-03T09:18:28.582Z,102637.78
2022-12-03T09:20:57.263Z,102637.66
2022-12-03T09:23:24.692Z,102629.69
2022-12-03T09:25:51.930Z,102517.03
2022-12-03T09:28:19.196Z,102622.38
2022-12-03T09:30:46.397Z,102581.59
2022-12-03T09:33:14.715Z,102624.94
2022-12-03T09:35:41.870Z,102604.81
2022-12-03T09:38:09.304Z,102521.97
2022-12-03T09:40:36.533Z,102599.78
2022-12-03T09:43:05.157Z,102597.41
2022-12-03T09:45:32.652Z,102611.25
2022-12-03T09:48:03.851Z,102626.97
2022-12-03T09:50:31.653Z,102623.16
2022-12-03T09:53:02.593Z,102622.75
2022-12-03T09:55:30.897Z,102599.63
2022-12-03T09:57:58.628Z,102602.75
2022-12-03T10:00:29.870Z,102606.44
2022-12-03T10:03:02.269Z,102605.25
2022-12-03T10:05:30.284Z,102592.19
2022-12-03T10:08:13.499Z,102599.19
2022-12-03T10:10:42.134Z,102582.63
2022-12-03T10:13:17.127Z,102560.84
2022-12-03T10:15:48.806Z,102598.28
2022-12-03T10:18:27.681Z,102573.91
2022-12-03T10:20:58.003Z,102607.03
2022-12-03T10:23:44.304Z,102604.81
2022-12-03T10:26:11.535Z,102608.31
2022-12-03T10:28:41.715Z,102600.63
2022-12-03T10:31:13.147Z,102554.06
2022-12-03T10:33:45.300Z,102608.66
2022-12-03T10:36:19.056Z,102570.03
2022-12-03T10:38:46.702Z,102550.44
2022-12-03T10:41:25.684Z,102572.41
2022-12-03T10:43:52.967Z,102547.50
2022-12-03T10:46:23.396Z,102599.81
2022-12-03T10:49:17.499Z,102606.66
2022-12-03T10:51:46.914Z,102613.16
2022-12-03T10:54:23.221Z,102598.78
2022-12-03T10:56:52.381Z,102576.53
2022-12-03T10:59:26.170Z,102592.38
2022-12-03T11:01:53.473Z,102569.72
2022-12-03T11:04:29.139Z,102571.56
2022-12-03T11:06:56.267Z,102504.09
2022-12-03T11:09:30.355Z,102568.47
2022-12-03T11:12:05.598Z,102570.47
2022-12-03T11:15:06.374Z,102565.00
2022-12-03T11:17:53.612Z,102562.53
2022-12-03T11:20:23.001Z,102562.34
2022-12-03T11:22:55.511Z,102476.69
2022-12-03T11:25:25.846Z,102559.25
2022-12-03T11:28:11.805Z,102562.53
2022-12-03T11:31:11.885Z,102571.88
2022-12-03T11:33:41.374Z,102567.75
2022-12-03T11:36:13.226Z,102574.81
2022-12-03T11:38:54.043Z,102558.34
2022-12-03T11:41:27.784Z,102567.63
2022-12-03T11:43:58.438Z,102498.91
2022-12-03T11:46:38.150Z,102568.41
2022-12-03T11:49:26.256Z,102551.22
2022-12-03T11:51:53.580Z,102532.81
2022-12-03T11:54:23.226Z,102561.69
2022-12-03T11:56:52.420Z,102561.22
2022-12-03T11:59:20.379Z,102596.63
2022-12-03T12:01:47.823Z,102565.59
2022-12-03T12:04:33.089Z,102559.03
2022-12-03T12:07:01.384Z,102567.91
2022-12-03T12:09:48.080Z,102569.53
2022-12-03T12:12:21.200Z,102572.41
2022-12-03T12:14:48.530Z,102547.31
2022-12-03T12:17:36.774Z,102574.78
2022-12-03T12:20:25.445Z,102570.56
2022-12-03T12:22:54.562Z,102589.88
2022-12-03T12:25:33.862Z,102570.03
2022-12-03T12:28:02.742Z,102574.78
2022-12-03T12:30:30.601Z,102564.25
2022-12-03T12:33:19.933Z,102568.34
2022-12-03T12:35:47.260Z,102563.94
2022-12-03T12:38:17.848Z,102553.25
2022-12-03T12:40:49.544Z,102561.78
2022-12-03T12:43:27.868Z,102447.22
2022-12-03T12:46:13.544Z,102575.06
2022-12-03T12:48:47.257Z,102534.97
2022-12-03T12:51:19.614Z,102564.19
2022-12-03T12:53:47.171Z,102550.59
2022-12-03T12:56:27.594Z,102557.91
2022-12-03T12:58:59.514Z,102555.47
2022-12-03T13:01:29.867Z,102550.56
2022-12-03T13:03:57.577Z,102557.00
2022-12-03T13:06:28.709Z,102539.19
2022-12-03T13:08:56.916Z,102444.94
2022-12-03T13:11:42.347Z,102553.78
2022-12-03T13:14:19.710Z,102557.84
2022-12-03T13:16:48.975Z,102462.75
2022-12-03T13:19:30.641Z,102431.84
2022-12-03T13:22:01.808Z,102540.69
2022-12-03T13:24:40.787Z,102563.22
2022-12-03T13:27:14.863Z,102568.09
2022-12-03T13:29:42.398Z,102560.13
2022-12-03T13:45:47.293Z,102568.88
2022-12-03T14:08:26.027Z,102403.00
2022-12-03T14:11:58.633Z,102447.41
2022-12-03T14:18:01.135Z,102543.59
2022-12-03T14:52:43.439Z,102628.81
2022-12-03T14:56:24.601Z,102611.34
2022-12-03T14:59:12.546Z,102516.41
2022-12-03T15:01:43.058Z,102614.41
2022-12-03T15:15:20.049Z,102620.63
2022-12-03T15:50:40.219Z,102626.16
2022-12-03T15:53:07.935Z,102626.81
2022-12-03T15:55:35.237Z,102524.06
2022-12-03T15:58:02.451Z,102640.78
2022-12-03T16:00:29.597Z,102606.19
2022-12-03T16:02:56.762Z,102637.06
2022-12-03T16:05:24.273Z,102499.56
2022-12-03T16:07:51.421Z,102623.84
2022-12-03T16:10:21.596Z,102626.00
2022-12-03T16:12:49.020Z,102611.03
2022-12-03T16:15:16.380Z,102577.06
2022-12-03T16:17:43.586Z,102629.66
2022-12-03T16:20:12.195Z,102612.75
2022-12-03T16:22:39.494Z,102641.03
2022-12-03T16:25:07.402Z,102625.00
2022-12-03T16:27:53.311Z,102635.59
2022-12-03T16:30:21.439Z,102627.00
2022-12-03T16:32:48.825Z,102628.50
2022-12-03T16:35:16.199Z,102631.81
2022-12-03T16:37:43.726Z,102627.31
2022-12-03T16:40:11.341Z,102514.56
2022-12-03T16:42:38.908Z,102593.31
2022-12-03T16:45:09.784Z,102561.84
2022-12-03T16:47:37.221Z,102636.25
2022-12-03T16:50:07.807Z,102571.13
2022-12-03T16:52:35.979Z,102595.75
2022-12-03T16:55:03.471Z,102607.53
2022-12-03T16:57:33.880Z,102654.00
2022-12-03T17:00:01.514Z,102632.91
2022-12-03T17:02:29.547Z,102519.19
2022-12-03T17:04:57.024Z,102659.19
2022-12-03T17:07:24.444Z,102525.28
2022-12-03T17:09:51.751Z,102645.81
2022-12-03T17:12:19.351Z,102630.78
2022-12-03T17:14:46.515Z,102656.72
2022-12-03T17:17:14.196Z,102661.16
2022-12-03T17:19:41.422Z,102657.53
2022-12-03T17:22:08.887Z,102625.09
2022-12-03T17:24:36.363Z,102663.59
2022-12-03T17:27:06.343Z,102661.59
2022-12-03T17:29:34.306Z,102651.09
2022-12-03T17:32:01.571Z,102583.88
2022-12-03T17:34:29.900Z,102657.94
2022-12-03T17:36:56.992Z,102640.91
2022-12-03T17:39:24.653Z,102640.41
2022-12-03T17:41:51.817Z,102662.34
2022-12-03T17:44:21.223Z,102659.53
2022-12-03T17:46:48.592Z,102659.94
2022-12-03T17:49:15.869Z,102666.69
2022-12-03T17:51:43.281Z,102656.59
2022-12-03T17:54:10.426Z,102669.22
2022-12-03T17:56:39.493Z,102655.03
2022-12-03T17:59:06.704Z,102675.25
2022-12-03T18:01:33.985Z,102671.66
2022-12-03T18:04:01.581Z,102666.84
2022-12-03T18:06:28.892Z,102670.91
2022-12-03T18:08:56.326Z,102634.88
2022-12-03T18:11:24.160Z,102636.88
2022-12-03T18:13:51.628Z,102668.81
2022-12-03T18:16:19.162Z,102674.09
2022-12-03T18:18:46.499Z,102674.13
2022-12-03T18:21:14.476Z,102648.63
2022-12-03T18:23:43.228Z,102676.09
2022-12-03T18:26:10.426Z,102650.47
2022-12-03T18:28:38.945Z,102679.31
2022-12-03T18:31:17.986Z,102671.09
2022-12-03T18:33:45.663Z,102674.25
2022-12-03T18:36:22.229Z,102683.19
2022-12-03T18:38:52.470Z,102645.56
2022-12-03T18:41:20.098Z,102694.44
2022-12-03T18:43:47.911Z,102666.97
2022-12-03T18:46:45.149Z,102685.66
2022-12-03T18:49:04.513Z,102600.63
2022-12-03T18:51:31.641Z,102687.28
2022-12-03T18:53:59.036Z,102676.72
2022-12-03T18:56:26.302Z,102696.09
2022-12-03T18:58:53.882Z,102699.59
2022-12-03T19:01:22.793Z,102696.69
2022-12-03T19:03:50.426Z,102704.03
2022-12-03T19:06:21.134Z,102626.56
2022-12-03T19:08:49.824Z,102695.13
2022-12-03T19:11:17.136Z,102706.44
2022-12-03T19:13:44.843Z,102706.44
2022-12-03T19:16:12.475Z,102707.72
2022-12-03T19:18:40.172Z,102651.50
2022-12-03T19:21:12.271Z,102692.75
2022-12-03T19:23:39.971Z,102690.38
2022-12-03T19:26:09.974Z,102690.34
2022-12-03T19:28:37.589Z,102621.63
2022-12-03T19:31:11.888Z,102611.72
2022-12-03T19:33:39.987Z,102703.19
2022-12-03T19:36:08.008Z,102572.06
2022-12-03T19:38:35.779Z,102643.09
2022-12-03T19:41:10.802Z,102709.03
2022-12-03T19:43:38.794Z,102689.84
2022-12-03T19:46:12.744Z,102616.19
2022-12-03T19:48:41.128Z,102723.88
2022-12-03T19:51:33.034Z,102711.06
2022-12-03T19:53:58.372Z,102620.31
2022-12-03T19:56:25.757Z,102717.09
2022-12-03T19:58:56.861Z,102701.34
2022-12-03T20:01:28.210Z,102713.56
2022-12-03T20:03:57.094Z,102716.84
2022-12-03T20:06:27.487Z,102719.34
2022-12-03T20:09:04.175Z,102702.28
2022-12-03T20:11:34.430Z,102689.06
2022-12-03T20:14:04.768Z,102629.53
2022-12-03T20:16:32.965Z,102679.09
2022-12-03T20:19:02.861Z,102717.78
2022-12-03T20:21:32.912Z,102686.28
2022-12-03T20:24:00.850Z,102712.59
2022-12-03T20:26:28.832Z,102710.63
2022-12-03T20:28:57.588Z,102653.84
2022-12-03T20:31:28.600Z,102703.19
2022-12-03T20:33:58.734Z,102618.91
2022-12-03T20:36:27.330Z,102717.38
2022-12-03T20:38:56.663Z,102715.31
2022-12-03T20:41:24.704Z,102627.75
2022-12-03T20:43:52.044Z,102673.06
2022-12-03T20:46:31.538Z,102716.94
2022-12-03T20:48:59.970Z,102662.66
2022-12-03T20:51:30.212Z,102715.41
2022-12-03T20:53:59.954Z,102704.03
2022-12-03T20:56:31.490Z,102712.22
2022-12-03T20:59:07.439Z,102719.47
2022-12-03T21:01:36.425Z,102608.81
2022-12-03T21:04:05.991Z,102668.09
2022-12-03T21:06:36.035Z,102667.91
2022-12-03T21:09:05.426Z,102728.41
2022-12-03T21:11:33.692Z,102734.44
2022-12-03T21:14:01.047Z,102743.75
2022-12-03T21:17:06.035Z,102738.94
2022-12-03T21:19:21.077Z,102738.09
2022-12-03T21:21:49.203Z,102745.75
2022-12-03T21:24:17.339Z,102745.41
2022-12-03T21:26:44.531Z,102745.88
2022-12-03T21:29:11.900Z,102662.03
2022-12-03T21:31:40.128Z,102737.41
2022-12-03T21:34:08.788Z,102740.69
2022-12-03T21:36:36.407Z,102741.81
2022-12-03T21:39:05.733Z,102738.56
2022-12-03T21:41:35.173Z,102744.16
2022-12-03T21:44:02.598Z,102732.91
2022-12-03T21:47:09.359Z,102739.78
2022-12-03T21:49:19.561Z,102746.16
2022-12-03T21:51:47.195Z,102735.72
2022-12-03T21:54:15.042Z,102734.53
2022-12-03T21:56:42.426Z,102739.69
2022-12-03T21:59:09.544Z,102680.44
2022-12-03T22:01:36.834Z,102695.16
2022-12-03T22:04:04.468Z,102744.16
2022-12-03T22:06:31.685Z,102719.34
2022-12-03T22:08:58.817Z,102750.19
2022-12-03T22:11:26.027Z,102743.78
2022-12-03T22:13:54.755Z,102750.22
2022-12-03T22:16:22.203Z,102745.84
2022-12-03T22:18:50.519Z,102743.41
2022-12-03T22:21:20.034Z,102742.94
2022-12-03T22:23:47.185Z,102717.81
2022-12-03T22:26:16.978Z,102606.03
2022-12-03T22:28:46.200Z,102667.66
2022-12-03T22:31:14.433Z,102727.09
2022-12-03T22:33:42.305Z,102629.94
2022-12-03T22:36:20.022Z,102587.66
2022-12-03T22:38:49.351Z,102735.19
2022-12-03T22:41:16.627Z,102734.84
2022-12-03T22:43:44.760Z,102735.59
2022-12-03T22:46:13.097Z,102737.28
2022-12-03T22:48:42.133Z,102740.91
2022-12-03T22:51:21.167Z,102738.06
2022-12-03T22:53:53.453Z,102726.81
2022-12-03T22:56:22.475Z,102733.28
2022-12-03T22:58:50.007Z,102609.41
2022-12-03T23:01:32.646Z,102715.88
2022-12-03T23:04:00.744Z,102720.34
2022-12-03T23:06:28.931Z,102715.47
2022-12-03T23:08:57.203Z,102699.19
2022-12-03T23:11:25.177Z,102696.38
2022-12-03T23:13:52.791Z,102720.38
2022-12-03T23:16:23.207Z,102703.44
2022-12-03T23:18:50.458Z,102705.03
2022-12-03T23:21:25.527Z,102704.56
2022-12-03T23:23:56.394Z,102627.13
2022-12-03T23:26:23.688Z,102664.53
2022-12-03T23:28:50.865Z,102675.84
2022-12-03T23:31:27.290Z,102654.00
2022-12-03T23:33:56.010Z,102702.63
2022-12-03T23:36:25.565Z,102681.88
2022-12-03T23:38:52.733Z,102701.44
2022-12-03T23:41:21.606Z,102704.53
2022-12-03T23:43:49.220Z,102677.28
2022-12-03T23:46:25.256Z,102665.66
2022-12-03T23:48:53.107Z,102721.03
2022-12-03T23:51:24.678Z,102712.06
2022-12-03T23:53:53.415Z,102682.16
2022-12-03T23:56:23.906Z,102704.13
2022-12-03T23:58:51.402Z,102599.09
